Terminal Aerodrome Forecast
Issued by NWS Greer, SC

Home | Current Version | Previous Version | Text Only | Print | Product List | Glossary On
Versions: 1 2 3 4 5 6 7 8 9 10 11 12 13 14 15 16 17 18 19
000
FTUS42 KGSP 030100 AAA
TAFGSP
TAF AMD
KGSP 030111Z 0301/0324 18010KT P6SM FEW060 SCT150
     FM030300 VRB03KT P6SM SCT050 BKN200
     FM031400 23005KT P6SM SCT050 BKN250
     FM031800 18005KT P6SM SCT045 BKN250 PROB30 0319/0323 4SM TSRA
      BKN040CB=

USA.gov is the U.S. government's official web portal to all federal, state and local government web resources and services.